sensor_id;sensor_type;location;lat;lon;timestamp;P1;durP1;ratioP1;P2;durP2;ratioP2
35562;SDS011;21665;40.108;18.302;2023-03-23T00:00:12;379.75;;;76.55;;
35562;SDS011;21665;40.108;18.302;2023-03-23T00:02:39;556.00;;;79.97;;
35562;SDS011;21665;40.108;18.302;2023-03-23T00:05:06;460.70;;;75.40;;
35562;SDS011;21665;40.108;18.302;2023-03-23T00:07:33;463.85;;;71.40;;
35562;SDS011;21665;40.108;18.302;2023-03-23T00:10:00;380.83;;;69.75;;
35562;SDS011;21665;40.108;18.302;2023-03-23T00:12:28;411.60;;;67.93;;
35562;SDS011;21665;40.108;18.302;2023-03-23T00:15:03;355.65;;;64.22;;
35562;SDS011;21665;40.108;18.302;2023-03-23T00:17:33;506.30;;;72.22;;
35562;SDS011;21665;40.108;18.302;2023-03-23T00:20:25;432.15;;;67.72;;
35562;SDS011;21665;40.108;18.302;2023-03-23T00:22:55;495.65;;;64.40;;
35562;SDS011;21665;40.108;18.302;2023-03-23T00:25:25;517.80;;;65.57;;
35562;SDS011;21665;40.108;18.302;2023-03-23T00:27:52;497.10;;;67.45;;
35562;SDS011;21665;40.108;18.302;2023-03-23T00:30:19;353.65;;;61.42;;
35562;SDS011;21665;40.108;18.302;2023-03-23T00:32:45;559.38;;;69.15;;
35562;SDS011;21665;40.108;18.302;2023-03-23T00:35:11;294.60;;;54.42;;
35562;SDS011;21665;40.108;18.302;2023-03-23T00:37:38;729.83;;;76.65;;
35562;SDS011;21665;40.108;18.302;2023-03-23T00:40:05;499.83;;;69.65;;
35562;SDS011;21665;40.108;18.302;2023-03-23T00:42:36;315.35;;;60.05;;
35562;SDS011;21665;40.108;18.302;2023-03-23T00:45:04;345.27;;;64.50;;
35562;SDS011;21665;40.108;18.302;2023-03-23T00:47:36;260.50;;;57.05;;
35562;SDS011;21665;40.108;18.302;2023-03-23T00:50:03;173.95;;;49.92;;
35562;SDS011;21665;40.108;18.302;2023-03-23T00:52:31;366.17;;;62.20;;
35562;SDS011;21665;40.108;18.302;2023-03-23T00:54:58;339.70;;;59.97;;
35562;SDS011;21665;40.108;18.302;2023-03-23T00:57:24;294.75;;;59.45;;
35562;SDS011;21665;40.108;18.302;2023-03-23T00:59:51;229.30;;;60.17;;
35562;SDS011;21665;40.108;18.302;2023-03-23T01:02:17;399.05;;;64.72;;
35562;SDS011;21665;40.108;18.302;2023-03-23T01:04:45;362.42;;;63.15;;
35562;SDS011;21665;40.108;18.302;2023-03-23T01:07:12;290.92;;;62.35;;
35562;SDS011;21665;40.108;18.302;2023-03-23T01:09:39;298.40;;;60.15;;
35562;SDS011;21665;40.108;18.302;2023-03-23T01:12:06;220.20;;;54.28;;
35562;SDS011;21665;40.108;18.302;2023-03-23T01:14:32;230.80;;;56.60;;
35562;SDS011;21665;40.108;18.302;2023-03-23T01:16:59;308.40;;;60.20;;
35562;SDS011;21665;40.108;18.302;2023-03-23T01:19:25;190.30;;;52.00;;
35562;SDS011;21665;40.108;18.302;2023-03-23T01:21:51;308.30;;;58.13;;
35562;SDS011;21665;40.108;18.302;2023-03-23T01:24:18;320.73;;;61.13;;
35562;SDS011;21665;40.108;18.302;2023-03-23T01:26:45;250.02;;;56.50;;
35562;SDS011;21665;40.108;18.302;2023-03-23T01:29:12;278.52;;;54.03;;
35562;SDS011;21665;40.108;18.302;2023-03-23T01:31:39;218.98;;;54.10;;
35562;SDS011;21665;40.108;18.302;2023-03-23T01:34:06;215.35;;;50.35;;
35562;SDS011;21665;40.108;18.302;2023-03-23T01:36:34;293.05;;;56.10;;
35562;SDS011;21665;40.108;18.302;2023-03-23T01:39:03;249.15;;;53.10;;
35562;SDS011;21665;40.108;18.302;2023-03-23T01:41:32;157.55;;;44.15;;
35562;SDS011;21665;40.108;18.302;2023-03-23T01:44:06;418.05;;;57.58;;
35562;SDS011;21665;40.108;18.302;2023-03-23T01:46:58;237.00;;;45.33;;
35562;SDS011;21665;40.108;18.302;2023-03-23T01:49:25;188.50;;;46.10;;
35562;SDS011;21665;40.108;18.302;2023-03-23T01:52:01;177.65;;;42.10;;
35562;SDS011;21665;40.108;18.302;2023-03-23T01:54:35;198.15;;;42.78;;
35562;SDS011;21665;40.108;18.302;2023-03-23T01:57:09;192.98;;;38.72;;
35562;SDS011;21665;40.108;18.302;2023-03-23T01:59:45;301.80;;;46.92;;
35562;SDS011;21665;40.108;18.302;2023-03-23T02:02:20;226.25;;;42.78;;
35562;SDS011;21665;40.108;18.302;2023-03-23T02:04:50;144.10;;;41.78;;
35562;SDS011;21665;40.108;18.302;2023-03-23T02:07:21;118.45;;;38.08;;
35562;SDS011;21665;40.108;18.302;2023-03-23T02:09:51;145.32;;;40.92;;
35562;SDS011;21665;40.108;18.302;2023-03-23T02:12:18;177.30;;;43.67;;
35562;SDS011;21665;40.108;18.302;2023-03-23T02:14:47;153.00;;;44.97;;
35562;SDS011;21665;40.108;18.302;2023-03-23T02:31:20;124.78;;;42.30;;
35562;SDS011;21665;40.108;18.302;2023-03-23T02:33:57;127.35;;;41.92;;
35562;SDS011;21665;40.108;18.302;2023-03-23T02:39:05;119.30;;;39.97;;
35562;SDS011;21665;40.108;18.302;2023-03-23T02:42:02;142.32;;;41.83;;
35562;SDS011;21665;40.108;18.302;2023-03-23T02:44:34;117.07;;;39.17;;
35562;SDS011;21665;40.108;18.302;2023-03-23T02:47:04;133.23;;;41.00;;
35562;SDS011;21665;40.108;18.302;2023-03-23T02:49:38;124.05;;;39.80;;
35562;SDS011;21665;40.108;18.302;2023-03-23T02:52:14;116.22;;;37.88;;
35562;SDS011;21665;40.108;18.302;2023-03-23T02:54:48;116.68;;;39.45;;
35562;SDS011;21665;40.108;18.302;2023-03-23T02:57:16;128.80;;;42.85;;
35562;SDS011;21665;40.108;18.302;2023-03-23T02:59:45;118.40;;;42.10;;
35562;SDS011;21665;40.108;18.302;2023-03-23T03:21:36;119.82;;;43.55;;
35562;SDS011;21665;40.108;18.302;2023-03-23T03:24:08;122.25;;;41.40;;
35562;SDS011;21665;40.108;18.302;2023-03-23T03:26:39;111.25;;;41.58;;
35562;SDS011;21665;40.108;18.302;2023-03-23T03:29:35;119.18;;;41.75;;
35562;SDS011;21665;40.108;18.302;2023-03-23T03:32:08;155.32;;;42.10;;
35562;SDS011;21665;40.108;18.302;2023-03-23T03:34:40;122.15;;;42.00;;
35562;SDS011;21665;40.108;18.302;2023-03-23T03:37:07;111.35;;;40.83;;
35562;SDS011;21665;40.108;18.302;2023-03-23T03:39:38;113.53;;;42.15;;
35562;SDS011;21665;40.108;18.302;2023-03-23T03:42:05;109.40;;;43.40;;
35562;SDS011;21665;40.108;18.302;2023-03-23T03:44:32;113.63;;;42.05;;
35562;SDS011;21665;40.108;18.302;2023-03-23T03:46:59;114.03;;;42.88;;
35562;SDS011;21665;40.108;18.302;2023-03-23T03:49:26;108.32;;;44.08;;
35562;SDS011;21665;40.108;18.302;2023-03-23T03:51:54;106.43;;;44.03;;
35562;SDS011;21665;40.108;18.302;2023-03-23T03:54:25;105.95;;;44.50;;
35562;SDS011;21665;40.108;18.302;2023-03-23T03:56:51;100.35;;;43.55;;
35562;SDS011;21665;40.108;18.302;2023-03-23T03:59:41;97.13;;;43.42;;
35562;SDS011;21665;40.108;18.302;2023-03-23T04:02:28;97.70;;;41.83;;
35562;SDS011;21665;40.108;18.302;2023-03-23T04:04:55;89.35;;;41.65;;
35562;SDS011;21665;40.108;18.302;2023-03-23T04:07:21;92.35;;;40.47;;
35562;SDS011;21665;40.108;18.302;2023-03-23T04:09:53;102.63;;;44.97;;
35562;SDS011;21665;40.108;18.302;2023-03-23T04:12:20;98.97;;;44.17;;
35562;SDS011;21665;40.108;18.302;2023-03-23T04:15:10;91.43;;;42.92;;
35562;SDS011;21665;40.108;18.302;2023-03-23T04:17:37;90.95;;;43.47;;
35562;SDS011;21665;40.108;18.302;2023-03-23T04:20:07;89.05;;;44.05;;
35562;SDS011;21665;40.108;18.302;2023-03-23T04:22:48;102.50;;;45.85;;
35562;SDS011;21665;40.108;18.302;2023-03-23T04:25:16;96.53;;;45.30;;
35562;SDS011;21665;40.108;18.302;2023-03-23T04:27:48;90.30;;;43.40;;
35562;SDS011;21665;40.108;18.302;2023-03-23T04:30:24;85.22;;;42.72;;
35562;SDS011;21665;40.108;18.302;2023-03-23T04:33:09;94.90;;;44.78;;
35562;SDS011;21665;40.108;18.302;2023-03-23T04:35:46;92.25;;;42.80;;
35562;SDS011;21665;40.108;18.302;2023-03-23T04:38:33;86.60;;;43.67;;
35562;SDS011;21665;40.108;18.302;2023-03-23T04:41:08;89.07;;;44.25;;
35562;SDS011;21665;40.108;18.302;2023-03-23T04:43:56;84.55;;;41.92;;
35562;SDS011;21665;40.108;18.302;2023-03-23T04:46:33;86.90;;;42.53;;
35562;SDS011;21665;40.108;18.302;2023-03-23T04:49:06;89.80;;;42.88;;
35562;SDS011;21665;40.108;18.302;2023-03-23T04:51:36;84.72;;;41.15;;
35562;SDS011;21665;40.108;18.302;2023-03-23T04:54:25;84.30;;;41.70;;
35562;SDS011;21665;40.108;18.302;2023-03-23T04:56:58;77.82;;;41.28;;
35562;SDS011;21665;40.108;18.302;2023-03-23T04:59:25;80.90;;;41.67;;
35562;SDS011;21665;40.108;18.302;2023-03-23T05:02:02;81.97;;;39.95;;
35562;SDS011;21665;40.108;18.302;2023-03-23T05:04:29;75.22;;;38.63;;
35562;SDS011;21665;40.108;18.302;2023-03-23T05:07:17;71.72;;;37.33;;
35562;SDS011;21665;40.108;18.302;2023-03-23T05:09:47;66.25;;;36.38;;
35562;SDS011;21665;40.108;18.302;2023-03-23T05:12:16;63.97;;;34.50;;
35562;SDS011;21665;40.108;18.302;2023-03-23T05:14:56;65.13;;;35.20;;
35562;SDS011;21665;40.108;18.302;2023-03-23T05:17:26;60.78;;;35.10;;
35562;SDS011;21665;40.108;18.302;2023-03-23T05:19:56;58.17;;;35.35;;
35562;SDS011;21665;40.108;18.302;2023-03-23T05:22:35;59.28;;;33.00;;
35562;SDS011;21665;40.108;18.302;2023-03-23T05:25:05;52.97;;;31.65;;
35562;SDS011;21665;40.108;18.302;2023-03-23T05:27:37;52.90;;;30.92;;
35562;SDS011;21665;40.108;18.302;2023-03-23T05:30:18;50.35;;;30.67;;
35562;SDS011;21665;40.108;18.302;2023-03-23T05:32:47;49.42;;;29.05;;
35562;SDS011;21665;40.108;18.302;2023-03-23T05:35:36;46.00;;;29.25;;
35562;SDS011;21665;40.108;18.302;2023-03-23T05:38:03;47.40;;;28.67;;
35562;SDS011;21665;40.108;18.302;2023-03-23T05:40:31;43.95;;;26.10;;
35562;SDS011;21665;40.108;18.302;2023-03-23T05:43:03;45.42;;;26.45;;
35562;SDS011;21665;40.108;18.302;2023-03-23T05:45:59;41.90;;;24.85;;
35562;SDS011;21665;40.108;18.302;2023-03-23T05:48:27;38.60;;;23.15;;
35562;SDS011;21665;40.108;18.302;2023-03-23T05:50:57;34.85;;;22.05;;
35562;SDS011;21665;40.108;18.302;2023-03-23T05:53:24;32.88;;;22.67;;
35562;SDS011;21665;40.108;18.302;2023-03-23T05:55:52;33.08;;;21.98;;
35562;SDS011;21665;40.108;18.302;2023-03-23T05:58:43;29.55;;;20.83;;
35562;SDS011;21665;40.108;18.302;2023-03-23T06:01:09;32.72;;;22.50;;
35562;SDS011;21665;40.108;18.302;2023-03-23T06:03:38;28.60;;;22.08;;
35562;SDS011;21665;40.108;18.302;2023-03-23T06:08:52;31.98;;;25.70;;
35562;SDS011;21665;40.108;18.302;2023-03-23T06:11:33;36.05;;;25.92;;
35562;SDS011;21665;40.108;18.302;2023-03-23T06:14:19;29.33;;;24.45;;
35562;SDS011;21665;40.108;18.302;2023-03-23T06:16:47;31.83;;;26.02;;
35562;SDS011;21665;40.108;18.302;2023-03-23T06:19:14;28.15;;;24.92;;
35562;SDS011;21665;40.108;18.302;2023-03-23T06:21:50;29.42;;;26.52;;
35562;SDS011;21665;40.108;18.302;2023-03-23T06:24:23;29.98;;;26.88;;
35562;SDS011;21665;40.108;18.302;2023-03-23T06:26:51;31.27;;;26.67;;
35562;SDS011;21665;40.108;18.302;2023-03-23T06:29:21;32.17;;;27.10;;
35562;SDS011;21665;40.108;18.302;2023-03-23T06:31:54;28.60;;;25.60;;
35562;SDS011;21665;40.108;18.302;2023-03-23T06:34:26;28.07;;;24.30;;
35562;SDS011;21665;40.108;18.302;2023-03-23T06:37:11;29.13;;;24.42;;
35562;SDS011;21665;40.108;18.302;2023-03-23T06:39:49;26.92;;;24.13;;
35562;SDS011;21665;40.108;18.302;2023-03-23T06:42:28;27.20;;;24.33;;
35562;SDS011;21665;40.108;18.302;2023-03-23T06:45:14;27.73;;;25.02;;
35562;SDS011;21665;40.108;18.302;2023-03-23T06:47:43;28.77;;;25.73;;
35562;SDS011;21665;40.108;18.302;2023-03-23T06:50:15;29.40;;;26.63;;
35562;SDS011;21665;40.108;18.302;2023-03-23T06:52:45;28.27;;;25.48;;
35562;SDS011;21665;40.108;18.302;2023-03-23T06:55:13;27.83;;;25.08;;
35562;SDS011;21665;40.108;18.302;2023-03-23T06:57:43;28.63;;;25.92;;
35562;SDS011;21665;40.108;18.302;2023-03-23T07:00:12;28.13;;;25.42;;
35562;SDS011;21665;40.108;18.302;2023-03-23T07:02:41;29.13;;;26.33;;
35562;SDS011;21665;40.108;18.302;2023-03-23T07:05:09;28.95;;;26.05;;
35562;SDS011;21665;40.108;18.302;2023-03-23T07:07:42;28.13;;;25.55;;
35562;SDS011;21665;40.108;18.302;2023-03-23T07:10:20;28.55;;;25.73;;
35562;SDS011;21665;40.108;18.302;2023-03-23T07:12:46;29.17;;;26.55;;
35562;SDS011;21665;40.108;18.302;2023-03-23T07:15:14;29.45;;;26.40;;
35562;SDS011;21665;40.108;18.302;2023-03-23T07:17:44;29.50;;;26.60;;
35562;SDS011;21665;40.108;18.302;2023-03-23T07:20:21;28.27;;;25.88;;
35562;SDS011;21665;40.108;18.302;2023-03-23T07:22:48;28.58;;;26.20;;
35562;SDS011;21665;40.108;18.302;2023-03-23T07:25:34;29.73;;;27.00;;
35562;SDS011;21665;40.108;18.302;2023-03-23T07:28:02;29.92;;;26.90;;
35562;SDS011;21665;40.108;18.302;2023-03-23T07:30:29;28.38;;;25.55;;
35562;SDS011;21665;40.108;18.302;2023-03-23T07:32:56;28.48;;;25.85;;
35562;SDS011;21665;40.108;18.302;2023-03-23T07:35:24;29.25;;;26.35;;
35562;SDS011;21665;40.108;18.302;2023-03-23T07:38:02;28.15;;;25.60;;
35562;SDS011;21665;40.108;18.302;2023-03-23T07:40:30;27.92;;;25.27;;
35562;SDS011;21665;40.108;18.302;2023-03-23T07:43:06;27.35;;;25.05;;
35562;SDS011;21665;40.108;18.302;2023-03-23T07:45:53;29.50;;;26.77;;
35562;SDS011;21665;40.108;18.302;2023-03-23T07:48:23;27.77;;;25.15;;
35562;SDS011;21665;40.108;18.302;2023-03-23T07:50:51;28.50;;;25.80;;
35562;SDS011;21665;40.108;18.302;2023-03-23T07:53:20;28.63;;;25.83;;
35562;SDS011;21665;40.108;18.302;2023-03-23T07:55:57;28.35;;;25.35;;
35562;SDS011;21665;40.108;18.302;2023-03-23T07:58:42;28.52;;;25.65;;
35562;SDS011;21665;40.108;18.302;2023-03-23T08:01:11;27.98;;;25.38;;
35562;SDS011;21665;40.108;18.302;2023-03-23T08:03:40;27.02;;;24.33;;
35562;SDS011;21665;40.108;18.302;2023-03-23T08:06:29;27.10;;;24.90;;
35562;SDS011;21665;40.108;18.302;2023-03-23T08:09:22;27.67;;;25.20;;
35562;SDS011;21665;40.108;18.302;2023-03-23T09:08:30;25.90;;;23.85;;
35562;SDS011;21665;40.108;18.302;2023-03-23T09:11:04;25.55;;;23.25;;
35562;SDS011;21665;40.108;18.302;2023-03-23T09:13:34;25.52;;;23.27;;
35562;SDS011;21665;40.108;18.302;2023-03-23T09:16:01;24.20;;;22.33;;
35562;SDS011;21665;40.108;18.302;2023-03-23T09:18:29;25.38;;;23.20;;
35562;SDS011;21665;40.108;18.302;2023-03-23T09:20:58;26.38;;;23.98;;
35562;SDS011;21665;40.108;18.302;2023-03-23T09:23:25;24.70;;;22.55;;
35562;SDS011;21665;40.108;18.302;2023-03-23T09:25:55;24.85;;;22.50;;
35562;SDS011;21665;40.108;18.302;2023-03-23T09:28:25;25.75;;;23.45;;
35562;SDS011;21665;40.108;18.302;2023-03-23T09:30:54;24.70;;;22.38;;
35562;SDS011;21665;40.108;18.302;2023-03-23T09:33:24;24.50;;;22.55;;
35562;SDS011;21665;40.108;18.302;2023-03-23T09:35:52;25.15;;;22.88;;
35562;SDS011;21665;40.108;18.302;2023-03-23T09:38:19;24.63;;;22.48;;
35562;SDS011;21665;40.108;18.302;2023-03-23T09:40:55;23.80;;;22.10;;
35562;SDS011;21665;40.108;18.302;2023-03-23T09:49:22;24.80;;;22.70;;
35562;SDS011;21665;40.108;18.302;2023-03-23T09:52:13;24.75;;;22.55;;
35562;SDS011;21665;40.108;18.302;2023-03-23T09:54:42;24.80;;;22.52;;
35562;SDS011;21665;40.108;18.302;2023-03-23T09:57:18;24.75;;;22.58;;
35562;SDS011;21665;40.108;18.302;2023-03-23T10:00:17;24.90;;;22.20;;
35562;SDS011;21665;40.108;18.302;2023-03-23T10:03:18;24.42;;;22.35;;
35562;SDS011;21665;40.108;18.302;2023-03-23T10:05:54;25.50;;;23.20;;
35562;SDS011;21665;40.108;18.302;2023-03-23T10:08:25;25.63;;;23.17;;
35562;SDS011;21665;40.108;18.302;2023-03-23T10:11:04;24.45;;;22.15;;
35562;SDS011;21665;40.108;18.302;2023-03-23T10:16:17;24.45;;;22.55;;
35562;SDS011;21665;40.108;18.302;2023-03-23T10:21:41;23.52;;;21.65;;
35562;SDS011;21665;40.108;18.302;2023-03-23T10:24:14;23.65;;;21.75;;
35562;SDS011;21665;40.108;18.302;2023-03-23T10:27:05;24.17;;;22.13;;
35562;SDS011;21665;40.108;18.302;2023-03-23T10:29:44;23.85;;;22.05;;
35562;SDS011;21665;40.108;18.302;2023-03-23T10:32:21;23.20;;;21.60;;
35562;SDS011;21665;40.108;18.302;2023-03-23T10:35:17;22.95;;;21.35;;
35562;SDS011;21665;40.108;18.302;2023-03-23T10:37:56;23.80;;;22.00;;
35562;SDS011;21665;40.108;18.302;2023-03-23T10:40:43;23.00;;;21.15;;
35562;SDS011;21665;40.108;18.302;2023-03-23T10:43:14;23.80;;;21.98;;
35562;SDS011;21665;40.108;18.302;2023-03-23T10:45:40;23.85;;;21.58;;
35562;SDS011;21665;40.108;18.302;2023-03-23T10:48:16;22.90;;;21.20;;
35562;SDS011;21665;40.108;18.302;2023-03-23T10:50:56;23.15;;;21.40;;
35562;SDS011;21665;40.108;18.302;2023-03-23T10:53:30;22.95;;;21.35;;
35562;SDS011;21665;40.108;18.302;2023-03-23T10:56:05;23.38;;;21.38;;
35562;SDS011;21665;40.108;18.302;2023-03-23T10:58:53;22.38;;;20.50;;
35562;SDS011;21665;40.108;18.302;2023-03-23T11:01:28;22.70;;;20.90;;
35562;SDS011;21665;40.108;18.302;2023-03-23T11:04:00;22.63;;;21.00;;
35562;SDS011;21665;40.108;18.302;2023-03-23T11:06:28;22.75;;;20.85;;
35562;SDS011;21665;40.108;18.302;2023-03-23T11:11:58;22.58;;;20.98;;
35562;SDS011;21665;40.108;18.302;2023-03-23T11:14:27;22.55;;;20.85;;
35562;SDS011;21665;40.108;18.302;2023-03-23T11:16:57;23.15;;;21.35;;
35562;SDS011;21665;40.108;18.302;2023-03-23T11:19:28;23.63;;;21.75;;
35562;SDS011;21665;40.108;18.302;2023-03-23T11:24:41;22.63;;;20.83;;
35562;SDS011;21665;40.108;18.302;2023-03-23T11:27:10;23.17;;;21.38;;
35562;SDS011;21665;40.108;18.302;2023-03-23T11:29:49;23.55;;;21.77;;
35562;SDS011;21665;40.108;18.302;2023-03-23T11:32:25;22.00;;;20.40;;
35562;SDS011;21665;40.108;18.302;2023-03-23T11:34:56;22.85;;;20.90;;
35562;SDS011;21665;40.108;18.302;2023-03-23T11:37:41;22.45;;;20.48;;
35562;SDS011;21665;40.108;18.302;2023-03-23T11:45:19;21.50;;;19.80;;
35562;SDS011;21665;40.108;18.302;2023-03-23T11:50:33;21.75;;;20.15;;
35562;SDS011;21665;40.108;18.302;2023-03-23T11:56:25;22.10;;;20.48;;
35562;SDS011;21665;40.108;18.302;2023-03-23T11:59:05;21.30;;;19.88;;
35562;SDS011;21665;40.108;18.302;2023-03-23T12:02:05;21.60;;;19.90;;
35562;SDS011;21665;40.108;18.302;2023-03-23T12:07:30;22.15;;;20.35;;
35562;SDS011;21665;40.108;18.302;2023-03-23T12:10:08;21.73;;;20.00;;
35562;SDS011;21665;40.108;18.302;2023-03-23T12:12:52;21.42;;;19.85;;
35562;SDS011;21665;40.108;18.302;2023-03-23T12:15:53;21.75;;;20.17;;
35562;SDS011;21665;40.108;18.302;2023-03-23T12:18:48;21.33;;;19.95;;
35562;SDS011;21665;40.108;18.302;2023-03-23T12:21:44;22.10;;;20.52;;
35562;SDS011;21665;40.108;18.302;2023-03-23T12:38:03;21.83;;;20.33;;
35562;SDS011;21665;40.108;18.302;2023-03-23T12:41:02;21.83;;;19.98;;
35562;SDS011;21665;40.108;18.302;2023-03-23T12:43:50;21.20;;;19.70;;
35562;SDS011;21665;40.108;18.302;2023-03-23T12:51:21;21.17;;;19.88;;
35562;SDS011;21665;40.108;18.302;2023-03-23T12:53:57;21.55;;;20.00;;
35562;SDS011;21665;40.108;18.302;2023-03-23T12:59:23;21.48;;;20.08;;
35562;SDS011;21665;40.108;18.302;2023-03-23T13:02:15;21.52;;;19.98;;
35562;SDS011;21665;40.108;18.302;2023-03-23T13:07:32;21.23;;;19.77;;
35562;SDS011;21665;40.108;18.302;2023-03-23T13:12:39;21.23;;;19.98;;
35562;SDS011;21665;40.108;18.302;2023-03-23T13:18:12;21.88;;;20.50;;
35562;SDS011;21665;40.108;18.302;2023-03-23T13:21:00;21.20;;;19.77;;
35562;SDS011;21665;40.108;18.302;2023-03-23T13:23:36;22.33;;;20.92;;
35562;SDS011;21665;40.108;18.302;2023-03-23T13:26:08;22.00;;;20.55;;
35562;SDS011;21665;40.108;18.302;2023-03-23T13:28:55;21.98;;;20.67;;
35562;SDS011;21665;40.108;18.302;2023-03-23T13:34:17;21.67;;;20.30;;
35562;SDS011;21665;40.108;18.302;2023-03-23T13:36:51;21.95;;;20.45;;
35562;SDS011;21665;40.108;18.302;2023-03-23T13:39:33;21.63;;;20.33;;
35562;SDS011;21665;40.108;18.302;2023-03-23T14:00:45;23.20;;;21.40;;
35562;SDS011;21665;40.108;18.302;2023-03-23T14:06:03;22.38;;;21.10;;
35562;SDS011;21665;40.108;18.302;2023-03-23T14:08:51;22.23;;;20.92;;
35562;SDS011;21665;40.108;18.302;2023-03-23T14:11:22;22.45;;;21.15;;
35562;SDS011;21665;40.108;18.302;2023-03-23T14:13:57;22.63;;;21.33;;
35562;SDS011;21665;40.108;18.302;2023-03-23T14:16:35;22.75;;;21.35;;
35562;SDS011;21665;40.108;18.302;2023-03-23T14:19:24;22.52;;;21.23;;
35562;SDS011;21665;40.108;18.302;2023-03-23T14:21:57;22.70;;;21.35;;
35562;SDS011;21665;40.108;18.302;2023-03-23T14:24:31;22.73;;;21.40;;
35562;SDS011;21665;40.108;18.302;2023-03-23T14:29:36;23.02;;;21.38;;
35562;SDS011;21665;40.108;18.302;2023-03-23T14:32:02;23.15;;;21.50;;
35562;SDS011;21665;40.108;18.302;2023-03-23T14:34:35;22.08;;;20.77;;
35562;SDS011;21665;40.108;18.302;2023-03-23T14:37:01;21.98;;;20.77;;
35562;SDS011;21665;40.108;18.302;2023-03-23T14:39:32;22.23;;;20.92;;
35562;SDS011;21665;40.108;18.302;2023-03-23T14:42:03;22.90;;;21.33;;
35562;SDS011;21665;40.108;18.302;2023-03-23T14:44:37;22.73;;;21.33;;
35562;SDS011;21665;40.108;18.302;2023-03-23T14:47:16;22.35;;;21.05;;
35562;SDS011;21665;40.108;18.302;2023-03-23T14:49:55;22.45;;;21.05;;
35562;SDS011;21665;40.108;18.302;2023-03-23T14:52:28;22.85;;;21.20;;
35562;SDS011;21665;40.108;18.302;2023-03-23T14:55:09;23.33;;;21.80;;
35562;SDS011;21665;40.108;18.302;2023-03-23T14:57:45;23.15;;;21.65;;
35562;SDS011;21665;40.108;18.302;2023-03-23T15:02:41;23.73;;;21.83;;
35562;SDS011;21665;40.108;18.302;2023-03-23T15:07:50;22.85;;;21.20;;
35562;SDS011;21665;40.108;18.302;2023-03-23T15:10:21;21.88;;;20.48;;
35562;SDS011;21665;40.108;18.302;2023-03-23T15:12:49;22.45;;;20.95;;
35562;SDS011;21665;40.108;18.302;2023-03-23T15:18:29;22.40;;;20.90;;
35562;SDS011;21665;40.108;18.302;2023-03-23T15:21:07;23.48;;;21.67;;
35562;SDS011;21665;40.108;18.302;2023-03-23T15:23:40;22.60;;;21.20;;
35562;SDS011;21665;40.108;18.302;2023-03-23T15:26:15;22.08;;;20.55;;
35562;SDS011;21665;40.108;18.302;2023-03-23T15:29:14;22.30;;;20.90;;
35562;SDS011;21665;40.108;18.302;2023-03-23T15:31:53;21.75;;;20.33;;
35562;SDS011;21665;40.108;18.302;2023-03-23T15:34:25;21.67;;;20.27;;
35562;SDS011;21665;40.108;18.302;2023-03-23T15:37:00;21.98;;;20.30;;
35562;SDS011;21665;40.108;18.302;2023-03-23T15:39:29;22.20;;;20.60;;
35562;SDS011;21665;40.108;18.302;2023-03-23T15:41:56;22.02;;;20.42;;
35562;SDS011;21665;40.108;18.302;2023-03-23T15:44:32;22.65;;;20.70;;
35562;SDS011;21665;40.108;18.302;2023-03-23T15:47:10;21.95;;;20.35;;
35562;SDS011;21665;40.108;18.302;2023-03-23T15:49:45;20.75;;;19.50;;
35562;SDS011;21665;40.108;18.302;2023-03-23T15:52:13;20.85;;;19.42;;
35562;SDS011;21665;40.108;18.302;2023-03-23T15:54:47;21.02;;;19.63;;
35562;SDS011;21665;40.108;18.302;2023-03-23T15:57:14;21.45;;;19.85;;
35562;SDS011;21665;40.108;18.302;2023-03-23T15:59:41;20.50;;;19.05;;
35562;SDS011;21665;40.108;18.302;2023-03-23T16:02:12;19.98;;;18.77;;
35562;SDS011;21665;40.108;18.302;2023-03-23T16:04:44;21.13;;;19.63;;
35562;SDS011;21665;40.108;18.302;2023-03-23T16:07:14;20.85;;;19.35;;
35562;SDS011;21665;40.108;18.302;2023-03-23T16:09:41;20.52;;;18.98;;
35562;SDS011;21665;40.108;18.302;2023-03-23T16:12:11;20.30;;;19.08;;
35562;SDS011;21665;40.108;18.302;2023-03-23T16:14:38;20.98;;;19.52;;
35562;SDS011;21665;40.108;18.302;2023-03-23T16:17:08;21.08;;;19.67;;
35562;SDS011;21665;40.108;18.302;2023-03-23T16:19:38;20.52;;;18.77;;
35562;SDS011;21665;40.108;18.302;2023-03-23T16:22:05;21.08;;;19.48;;
35562;SDS011;21665;40.108;18.302;2023-03-23T16:24:33;20.83;;;19.20;;
35562;SDS011;21665;40.108;18.302;2023-03-23T16:26:59;20.58;;;19.13;;
35562;SDS011;21665;40.108;18.302;2023-03-23T16:29:26;20.17;;;18.83;;
35562;SDS011;21665;40.108;18.302;2023-03-23T16:31:52;20.13;;;18.73;;
35562;SDS011;21665;40.108;18.302;2023-03-23T16:34:19;20.80;;;19.05;;
35562;SDS011;21665;40.108;18.302;2023-03-23T16:36:46;20.08;;;18.58;;
35562;SDS011;21665;40.108;18.302;2023-03-23T16:39:13;19.83;;;18.50;;
35562;SDS011;21665;40.108;18.302;2023-03-23T16:41:43;20.10;;;18.60;;
35562;SDS011;21665;40.108;18.302;2023-03-23T16:44:10;20.42;;;19.10;;
35562;SDS011;21665;40.108;18.302;2023-03-23T16:46:37;20.95;;;19.17;;
35562;SDS011;21665;40.108;18.302;2023-03-23T16:49:07;21.13;;;19.25;;
35562;SDS011;21665;40.108;18.302;2023-03-23T16:51:34;21.05;;;19.67;;
35562;SDS011;21665;40.108;18.302;2023-03-23T16:54:00;21.35;;;19.73;;
35562;SDS011;21665;40.108;18.302;2023-03-23T16:56:27;21.70;;;19.90;;
35562;SDS011;21665;40.108;18.302;2023-03-23T16:58:54;22.17;;;20.48;;
35562;SDS011;21665;40.108;18.302;2023-03-23T17:01:21;22.25;;;20.60;;
35562;SDS011;21665;40.108;18.302;2023-03-23T17:03:47;22.00;;;20.40;;
35562;SDS011;21665;40.108;18.302;2023-03-23T17:06:20;21.63;;;20.00;;
35562;SDS011;21665;40.108;18.302;2023-03-23T17:08:47;22.90;;;20.95;;
35562;SDS011;21665;40.108;18.302;2023-03-23T17:11:14;21.55;;;20.08;;
35562;SDS011;21665;40.108;18.302;2023-03-23T17:13:41;22.58;;;20.63;;
35562;SDS011;21665;40.108;18.302;2023-03-23T17:16:07;21.90;;;19.95;;
35562;SDS011;21665;40.108;18.302;2023-03-23T17:18:34;22.40;;;20.42;;
35562;SDS011;21665;40.108;18.302;2023-03-23T17:21:00;22.38;;;20.67;;
35562;SDS011;21665;40.108;18.302;2023-03-23T17:23:28;22.38;;;20.63;;
35562;SDS011;21665;40.108;18.302;2023-03-23T17:25:55;22.52;;;20.73;;
35562;SDS011;21665;40.108;18.302;2023-03-23T17:28:22;22.88;;;21.17;;
35562;SDS011;21665;40.108;18.302;2023-03-23T17:30:50;22.08;;;20.35;;
35562;SDS011;21665;40.108;18.302;2023-03-23T17:33:18;22.67;;;20.75;;
35562;SDS011;21665;40.108;18.302;2023-03-23T17:35:45;21.70;;;20.00;;
35562;SDS011;21665;40.108;18.302;2023-03-23T17:38:16;23.30;;;21.40;;
35562;SDS011;21665;40.108;18.302;2023-03-23T17:40:42;23.15;;;21.42;;
35562;SDS011;21665;40.108;18.302;2023-03-23T17:43:09;23.77;;;21.73;;
35562;SDS011;21665;40.108;18.302;2023-03-23T17:45:36;24.20;;;22.13;;
35562;SDS011;21665;40.108;18.302;2023-03-23T17:48:02;24.00;;;22.00;;
35562;SDS011;21665;40.108;18.302;2023-03-23T17:50:33;24.92;;;22.77;;